Time;durP1;ratioP1;P1;durP2;ratioP2;P2;SDS_P1;SDS_P2;PMS_P1;PMS_P2;Temp;Humidity;BMP_temperature;BMP_pressure;BME280_temperature;BME280_humidity;BME280_pressure;Samples;Min_cycle;Max_cycle;Signal;HPM_P1;HPM_P2
2023/04/08 00:01:37;;;;;;;37.60;17.90;;;;;;;;;;4984348;28;20640;-78
2023/04/08 00:04:02;;;;;;;34.57;18.43;;;;;;;;;;4983751;28;20218;-75
2023/04/08 00:06:27;;;;;;;36.37;18.13;;;;;;;;;;4986887;28;20638;-77
2023/04/08 00:08:52;;;;;;;35.23;16.70;;;;;;;;;;4990286;28;20528;-76
2023/04/08 00:11:18;;;;;;;37.63;18.27;;;;;;;;;;4981176;28;20218;-76
2023/04/08 00:13:43;;;;;;;36.63;18.07;;;;;;;;;;4983318;28;20226;-76
2023/04/08 00:16:08;;;;;;;34.17;15.37;;;;;;;;;;4992396;28;20195;-76
2023/04/08 00:18:33;;;;;;;32.20;17.23;;;;;;;;;;4994753;28;20189;-76
2023/04/08 00:20:59;;;;;;;34.23;19.23;;;;;;;;;;4990678;28;20208;-76
2023/04/08 00:23:24;;;;;;;31.33;17.23;;;;;;;;;;4985238;28;20842;-76
2023/04/08 00:25:50;;;;;;;36.63;19.20;;;;;;;;;;4983248;28;20176;-76
2023/04/08 00:28:15;;;;;;;39.93;19.60;;;;;;;;;;4994446;28;20179;-76
2023/04/08 00:30:40;;;;;;;42.57;18.97;;;;;;;;;;4998796;28;20192;-77
2023/04/08 00:33:05;;;;;;;38.53;17.63;;;;;;;;;;5001772;28;20194;-76
2023/04/08 00:35:31;;;;;;;40.47;20.93;;;;;;;;;;5000943;28;20218;-76
2023/04/08 00:37:56;;;;;;;36.90;20.87;;;;;;;;;;5000000;28;20259;-75
2023/04/08 00:40:21;;;;;;;40.30;18.87;;;;;;;;;;5002606;28;20191;-75
2023/04/08 00:42:46;;;;;;;43.33;19.67;;;;;;;;;;5002684;28;20634;-74
2023/04/08 00:45:12;;;;;;;40.73;18.40;;;;;;;;;;5003451;28;20627;-76
2023/04/08 00:47:37;;;;;;;36.23;16.93;;;;;;;;;;5002075;28;20654;-77
2023/04/08 00:50:03;;;;;;;35.60;17.07;;;;;;;;;;4997527;28;20187;-77
2023/04/08 00:52:28;;;;;;;31.93;17.10;;;;;;;;;;4991526;28;20190;-75
2023/04/08 00:54:54;;;;;;;39.27;16.20;;;;;;;;;;5000489;28;20680;-75
2023/04/08 00:57:20;;;;;;;33.77;16.10;;;;;;;;;;4999630;28;20180;-76
2023/04/08 00:59:45;;;;;;;32.83;16.83;;;;;;;;;;5000818;28;20176;-75
2023/04/08 01:02:17;;;;;;;36.53;16.50;;;;;;;;;;5000655;28;20219;-77
2023/04/08 01:04:58;;;;;;;31.87;16.53;;;;;;;;;;5001437;28;20278;-77
2023/04/08 01:07:29;;;;;;;33.23;16.23;;;;;;;;;;4999386;28;20189;-76
2023/04/08 01:09:55;;;;;;;31.97;15.40;;;;;;;;;;5002606;28;20180;-76
2023/04/08 01:12:28;;;;;;;28.33;14.80;;;;;;;;;;5003821;28;20172;-77
2023/04/08 01:14:56;;;;;;;31.87;14.87;;;;;;;;;;4992298;28;20325;-76
2023/04/08 01:17:21;;;;;;;34.17;16.70;;;;;;;;;;4993505;28;20184;-76
2023/04/08 01:19:47;;;;;;;29.77;14.00;;;;;;;;;;4994070;28;20183;-76
2023/04/08 01:22:26;;;;;;;30.60;14.00;;;;;;;;;;4997146;28;20218;-76
2023/04/08 01:24:56;;;;;;;33.50;16.37;;;;;;;;;;4993274;28;20230;-78
2023/04/08 01:27:22;;;;;;;31.57;15.47;;;;;;;;;;4995893;28;20198;-78
2023/04/08 01:29:48;;;;;;;30.23;15.77;;;;;;;;;;4989633;28;20172;-77
2023/04/08 01:32:13;;;;;;;32.37;14.87;;;;;;;;;;4986169;28;20192;-76
2023/04/08 01:34:39;;;;;;;32.53;14.90;;;;;;;;;;4993265;28;20591;-76
2023/04/08 01:37:06;;;;;;;32.53;15.10;;;;;;;;;;4993306;28;20235;-76
2023/04/08 01:39:32;;;;;;;38.90;16.07;;;;;;;;;;4991011;28;20188;-75
2023/04/08 01:41:58;;;;;;;42.70;17.97;;;;;;;;;;4986942;28;20200;-76
2023/04/08 01:44:25;;;;;;;38.37;15.97;;;;;;;;;;4989748;28;20199;-76
2023/04/08 01:46:51;;;;;;;44.53;17.57;;;;;;;;;;4989150;28;20180;-76
2023/04/08 01:49:17;;;;;;;43.43;17.17;;;;;;;;;;4993448;28;20580;-76
2023/04/08 01:51:43;;;;;;;39.47;16.63;;;;;;;;;;4993468;28;20192;-75
2023/04/08 01:54:08;;;;;;;51.97;18.03;;;;;;;;;;4989964;28;20187;-76
2023/04/08 01:56:36;;;;;;;61.30;17.07;;;;;;;;;;4992322;28;20234;-76
2023/04/08 01:59:04;;;;;;;48.60;16.50;;;;;;;;;;4991333;28;20665;-75
2023/04/08 02:01:30;;;;;;;44.10;16.63;;;;;;;;;;4991415;28;20662;-76
2023/04/08 02:03:56;;;;;;;36.00;16.33;;;;;;;;;;5008853;28;20282;-76
2023/04/08 02:06:22;;;;;;;66.07;18.97;;;;;;;;;;4987852;28;20663;-76
2023/04/08 02:08:47;;;;;;;47.10;16.53;;;;;;;;;;4987545;28;20176;-75
2023/04/08 02:11:12;;;;;;;39.70;13.67;;;;;;;;;;4990994;28;20283;-76
2023/04/08 02:13:37;;;;;;;33.03;15.17;;;;;;;;;;4991627;28;20187;-75
2023/04/08 02:16:05;;;;;;;36.23;15.03;;;;;;;;;;4984401;28;20187;-74
2023/04/08 02:18:31;;;;;;;35.53;15.40;;;;;;;;;;4989375;28;20581;-76
2023/04/08 02:21:02;;;;;;;28.43;14.07;;;;;;;;;;4985049;28;20204;-75
2023/04/08 02:23:28;;;;;;;24.80;12.73;;;;;;;;;;4992189;28;20207;-75
2023/04/08 02:25:54;;;;;;;32.20;14.40;;;;;;;;;;4988973;28;20657;-75
2023/04/08 02:28:20;;;;;;;29.93;13.13;;;;;;;;;;4984682;28;20707;-76
2023/04/08 02:30:52;;;;;;;29.33;13.20;;;;;;;;;;4988966;28;20225;-75
2023/04/08 02:33:18;;;;;;;31.53;13.10;;;;;;;;;;4985533;28;20553;-76
2023/04/08 02:35:44;;;;;;;26.53;12.67;;;;;;;;;;4991427;28;20176;-76
2023/04/08 02:38:09;;;;;;;26.47;12.07;;;;;;;;;;4984867;28;20186;-75
2023/04/08 02:40:35;;;;;;;26.33;12.23;;;;;;;;;;4990899;28;20247;-75
2023/04/08 02:43:01;;;;;;;29.73;13.23;;;;;;;;;;4984457;28;20183;-75
2023/04/08 02:45:28;;;;;;;30.37;13.10;;;;;;;;;;4990375;28;20278;-75
2023/04/08 02:47:54;;;;;;;25.20;12.30;;;;;;;;;;4990334;28;20183;-75
2023/04/08 02:50:19;;;;;;;25.10;12.33;;;;;;;;;;4984154;28;20200;-76
2023/04/08 02:52:44;;;;;;;31.87;12.60;;;;;;;;;;4989574;28;20210;-77
2023/04/08 02:55:10;;;;;;;24.83;12.57;;;;;;;;;;4983819;28;20190;-75
2023/04/08 02:57:36;;;;;;;24.30;12.10;;;;;;;;;;4990750;28;20194;-75
2023/04/08 03:00:02;;;;;;;25.73;11.63;;;;;;;;;;4980124;28;20311;-75
2023/04/08 03:02:28;;;;;;;29.50;12.93;;;;;;;;;;4988427;28;20199;-77
2023/04/08 03:04:53;;;;;;;26.83;13.17;;;;;;;;;;4984289;28;20207;-76
2023/04/08 03:07:18;;;;;;;28.67;13.47;;;;;;;;;;4989469;28;20180;-77
2023/04/08 03:09:43;;;;;;;23.93;12.63;;;;;;;;;;4981578;28;20177;-76
2023/04/08 03:12:08;;;;;;;19.93;10.93;;;;;;;;;;4987074;28;20199;-77
2023/04/08 03:14:34;;;;;;;21.17;12.40;;;;;;;;;;4979898;28;20555;-76
2023/04/08 03:16:59;;;;;;;21.57;11.23;;;;;;;;;;4982095;28;20204;-77
2023/04/08 03:19:24;;;;;;;28.37;12.00;;;;;;;;;;4985412;28;20226;-77
2023/04/08 03:21:49;;;;;;;21.80;11.03;;;;;;;;;;4981619;28;20295;-77
2023/04/08 03:24:15;;;;;;;26.70;12.73;;;;;;;;;;4979905;28;20200;-76
2023/04/08 03:26:40;;;;;;;25.63;12.13;;;;;;;;;;4990158;28;20304;-76
2023/04/08 03:29:05;;;;;;;36.53;12.83;;;;;;;;;;4982336;28;20653;-76
2023/04/08 03:31:31;;;;;;;23.63;11.47;;;;;;;;;;4985212;28;20195;-76
2023/04/08 03:33:56;;;;;;;30.87;13.03;;;;;;;;;;4988825;28;20191;-76
2023/04/08 03:36:21;;;;;;;22.77;11.27;;;;;;;;;;4988953;28;20191;-76
2023/04/08 03:38:46;;;;;;;25.30;11.37;;;;;;;;;;4983207;28;20184;-76
2023/04/08 03:41:11;;;;;;;21.60;12.20;;;;;;;;;;4983013;28;20223;-76
2023/04/08 03:43:37;;;;;;;28.17;12.53;;;;;;;;;;4992205;28;20231;-77
2023/04/08 03:46:02;;;;;;;24.90;9.37;;;;;;;;;;4991429;28;20168;-76
2023/04/08 03:48:27;;;;;;;26.70;9.37;;;;;;;;;;4989470;28;20672;-77
2023/04/08 03:50:52;;;;;;;16.33;8.47;;;;;;;;;;4983493;28;20202;-77
2023/04/08 03:53:17;;;;;;;25.90;9.67;;;;;;;;;;4992464;28;20200;-76
2023/04/08 03:55:43;;;;;;;27.83;9.33;;;;;;;;;;4992239;28;20649;-77
2023/04/08 03:58:08;;;;;;;20.77;9.77;;;;;;;;;;4992899;28;20208;-77
2023/04/08 04:00:34;;;;;;;20.13;9.07;;;;;;;;;;4989829;28;20635;-78
2023/04/08 04:03:00;;;;;;;21.70;9.97;;;;;;;;;;4992017;28;20179;-77
2023/04/08 04:05:25;;;;;;;20.63;9.80;;;;;;;;;;4990836;28;20183;-78
2023/04/08 04:07:50;;;;;;;19.00;10.20;;;;;;;;;;4988655;28;20183;-77
2023/04/08 04:10:15;;;;;;;18.93;10.17;;;;;;;;;;4983569;28;20199;-77
2023/04/08 04:12:41;;;;;;;19.10;9.80;;;;;;;;;;4983837;28;20180;-77
2023/04/08 04:15:06;;;;;;;19.30;9.80;;;;;;;;;;4983591;28;20721;-77
2023/04/08 04:17:31;;;;;;;21.47;10.33;;;;;;;;;;4986506;28;20180;-77
2023/04/08 04:19:56;;;;;;;26.67;10.73;;;;;;;;;;4983622;28;20278;-77
2023/04/08 04:22:22;;;;;;;24.27;10.80;;;;;;;;;;4989823;28;20209;-77
2023/04/08 04:24:47;;;;;;;24.33;11.23;;;;;;;;;;4989079;28;20553;-77
2023/04/08 04:27:13;;;;;;;20.27;9.87;;;;;;;;;;4990186;28;20229;-77
2023/04/08 04:29:38;;;;;;;25.30;10.60;;;;;;;;;;4984019;28;20168;-77
2023/04/08 04:32:03;;;;;;;22.50;10.57;;;;;;;;;;4990558;28;20203;-77
2023/04/08 04:34:29;;;;;;;19.67;9.33;;;;;;;;;;4991912;28;20247;-78
2023/04/08 04:36:54;;;;;;;16.87;9.30;;;;;;;;;;4990853;28;20183;-77
2023/04/08 04:39:19;;;;;;;19.93;9.50;;;;;;;;;;4992001;28;20728;-76
2023/04/08 04:41:46;;;;;;;17.97;9.93;;;;;;;;;;4992322;28;20600;-77
2023/04/08 04:44:11;;;;;;;54.83;12.37;;;;;;;;;;4990736;28;20195;-77
2023/04/08 04:46:36;;;;;;;16.50;9.47;;;;;;;;;;4995094;28;20664;-77
2023/04/08 04:49:01;;;;;;;19.10;9.77;;;;;;;;;;4983740;28;20172;-77
2023/04/08 04:51:26;;;;;;;14.70;8.13;;;;;;;;;;4993210;28;20195;-77
2023/04/08 04:53:52;;;;;;;24.40;9.80;;;;;;;;;;4993095;28;20179;-78
2023/04/08 04:56:17;;;;;;;25.57;10.10;;;;;;;;;;4995887;28;20190;-77
2023/04/08 04:58:42;;;;;;;15.83;8.97;;;;;;;;;;4995451;28;20198;-77
2023/04/08 05:01:07;;;;;;;28.03;11.23;;;;;;;;;;4995160;28;20223;-77
2023/04/08 05:03:32;;;;;;;16.97;9.13;;;;;;;;;;4995462;28;20250;-77
2023/04/08 05:05:58;;;;;;;21.93;9.83;;;;;;;;;;4995476;28;20172;-77
2023/04/08 05:08:23;;;;;;;15.47;9.47;;;;;;;;;;4991105;28;20601;-77
2023/04/08 05:10:51;;;;;;;17.63;9.37;;;;;;;;;;4997658;28;20334;-77
2023/04/08 05:13:17;;;;;;;25.63;11.03;;;;;;;;;;4996674;28;20209;-77
2023/04/08 05:15:44;;;;;;;21.67;9.90;;;;;;;;;;5002868;28;20245;-78
2023/04/08 05:18:09;;;;;;;16.97;9.83;;;;;;;;;;4994412;28;20176;-77
2023/04/08 05:20:34;;;;;;;17.37;9.73;;;;;;;;;;4996576;28;20207;-77
2023/04/08 05:23:00;;;;;;;25.63;11.10;;;;;;;;;;4996422;28;20176;-77
2023/04/08 05:25:25;;;;;;;17.17;9.77;;;;;;;;;;4994222;28;20207;-77
2023/04/08 05:27:50;;;;;;;16.47;9.57;;;;;;;;;;4996607;28;20175;-75
2023/04/08 05:30:16;;;;;;;16.03;9.70;;;;;;;;;;4995182;28;20576;-77
2023/04/08 05:32:41;;;;;;;17.80;10.17;;;;;;;;;;4995494;28;20624;-77
2023/04/08 05:35:06;;;;;;;23.67;11.30;;;;;;;;;;4995666;28;20175;-77
2023/04/08 05:37:31;;;;;;;18.30;10.87;;;;;;;;;;4995632;28;20745;-77
2023/04/08 05:39:57;;;;;;;21.37;11.77;;;;;;;;;;4993938;28;20274;-77
2023/04/08 05:42:22;;;;;;;32.30;12.83;;;;;;;;;;4994895;28;20186;-77
2023/04/08 05:44:47;;;;;;;20.20;12.67;;;;;;;;;;4995077;28;20191;-77
2023/04/08 05:47:13;;;;;;;20.87;10.93;;;;;;;;;;4994836;28;20226;-77
2023/04/08 05:49:38;;;;;;;26.07;13.33;;;;;;;;;;4993516;28;20203;-76
2023/04/08 05:52:04;;;;;;;23.87;13.10;;;;;;;;;;4991454;28;20235;-77
2023/04/08 05:54:29;;;;;;;21.60;12.20;;;;;;;;;;4994230;28;20183;-77
2023/04/08 05:56:54;;;;;;;29.37;12.77;;;;;;;;;;4994890;28;20607;-77
2023/04/08 05:59:19;;;;;;;24.03;13.07;;;;;;;;;;4996135;28;20226;-77
2023/04/08 06:01:45;;;;;;;23.43;14.10;;;;;;;;;;4985007;28;20207;-78
2023/04/08 06:04:10;;;;;;;21.37;13.43;;;;;;;;;;4994340;28;20203;-77
2023/04/08 06:06:39;;;;;;;24.23;13.23;;;;;;;;;;4993471;28;20182;-76
2023/04/08 06:09:04;;;;;;;27.60;14.23;;;;;;;;;;4995123;28;20180;-76
2023/04/08 06:11:30;;;;;;;33.53;14.10;;;;;;;;;;4995865;28;20203;-76
2023/04/08 06:13:55;;;;;;;24.77;13.90;;;;;;;;;;4995318;28;20238;-76
2023/04/08 06:16:20;;;;;;;32.83;14.57;;;;;;;;;;4994016;28;20668;-76
2023/04/08 06:18:46;;;;;;;28.63;14.27;;;;;;;;;;4993969;28;20176;-77
2023/04/08 06:21:11;;;;;;;27.53;15.00;;;;;;;;;;4995607;28;20196;-76
2023/04/08 06:23:36;;;;;;;22.33;13.27;;;;;;;;;;4992380;28;20204;-76
2023/04/08 06:26:01;;;;;;;28.23;14.97;;;;;;;;;;4998137;28;20235;-76
2023/04/08 06:28:30;;;;;;;26.30;13.93;;;;;;;;;;4998324;28;20645;-76
2023/04/08 06:30:56;;;;;;;28.17;14.10;;;;;;;;;;4993767;28;20206;-76
2023/04/08 06:33:21;;;;;;;29.37;15.50;;;;;;;;;;4987754;28;20184;-76
2023/04/08 06:35:46;;;;;;;27.93;15.23;;;;;;;;;;4992850;28;20550;-76
2023/04/08 06:38:11;;;;;;;30.13;16.00;;;;;;;;;;4991587;28;20183;-79
2023/04/08 06:40:40;;;;;;;25.90;14.97;;;;;;;;;;4989730;28;20295;-77
2023/04/08 06:43:08;;;;;;;35.80;16.13;;;;;;;;;;4986266;28;20188;-76
2023/04/08 06:45:33;;;;;;;32.67;16.37;;;;;;;;;;4992733;28;20331;-77
2023/04/08 06:47:59;;;;;;;30.93;16.53;;;;;;;;;;4988814;28;20656;-77
2023/04/08 06:50:24;;;;;;;24.97;13.70;;;;;;;;;;4984252;28;20236;-77
2023/04/08 06:52:50;;;;;;;28.10;15.87;;;;;;;;;;4984396;28;20199;-77
2023/04/08 06:55:15;;;;;;;30.13;17.47;;;;;;;;;;4994877;28;20182;-77
2023/04/08 06:57:40;;;;;;;28.93;16.67;;;;;;;;;;4993404;28;20249;-77
2023/04/08 07:00:06;;;;;;;27.47;15.70;;;;;;;;;;4992933;28;20302;-76
2023/04/08 07:02:31;;;;;;;29.17;17.03;;;;;;;;;;4991774;28;20400;-76
2023/04/08 07:04:57;;;;;;;31.97;17.00;;;;;;;;;;4992815;28;20551;-76
2023/04/08 07:07:23;;;;;;;32.20;17.20;;;;;;;;;;4992136;28;20680;-76
2023/04/08 07:09:48;;;;;;;28.20;15.37;;;;;;;;;;4993859;28;20290;-78
2023/04/08 07:12:13;;;;;;;26.70;16.07;;;;;;;;;;4992559;28;20294;-77
2023/04/08 07:14:38;;;;;;;27.00;15.63;;;;;;;;;;4991168;28;20662;-77
2023/04/08 07:17:04;;;;;;;29.80;17.10;;;;;;;;;;4992242;28;20246;-77
2023/04/08 07:19:30;;;;;;;25.37;15.43;;;;;;;;;;4990631;28;20180;-77
2023/04/08 07:21:56;;;;;;;26.40;16.13;;;;;;;;;;4992422;28;20206;-76
2023/04/08 07:24:22;;;;;;;26.77;16.43;;;;;;;;;;4991886;28;20200;-75
2023/04/08 07:26:47;;;;;;;27.30;15.83;;;;;;;;;;4991934;28;20673;-76
2023/04/08 07:29:12;;;;;;;25.40;16.53;;;;;;;;;;4994058;28;20171;-77
2023/04/08 07:31:37;;;;;;;28.30;16.90;;;;;;;;;;4986317;28;20204;-77
2023/04/08 07:34:02;;;;;;;28.70;16.83;;;;;;;;;;4992175;28;20259;-76
2023/04/08 07:36:27;;;;;;;29.53;16.90;;;;;;;;;;4990948;28;20586;-77
2023/04/08 07:38:53;;;;;;;28.23;16.67;;;;;;;;;;4992161;28;20665;-76
2023/04/08 07:41:18;;;;;;;26.53;15.23;;;;;;;;;;4992974;28;20199;-77
2023/04/08 07:43:43;;;;;;;27.43;16.97;;;;;;;;;;4993873;28;20187;-76
2023/04/08 07:46:09;;;;;;;28.17;16.73;;;;;;;;;;4992223;28;20175;-76
2023/04/08 07:48:34;;;;;;;31.47;18.30;;;;;;;;;;4985879;28;20186;-77
2023/04/08 07:51:07;;;;;;;32.40;18.90;;;;;;;;;;4989488;28;20203;-77
2023/04/08 07:53:33;;;;;;;27.83;16.10;;;;;;;;;;4990508;28;20172;-77
2023/04/08 07:55:58;;;;;;;29.97;18.17;;;;;;;;;;4988492;28;20604;-77
2023/04/08 07:58:24;;;;;;;23.83;16.00;;;;;;;;;;4991678;28;20175;-77
2023/04/08 08:00:49;;;;;;;26.43;15.23;;;;;;;;;;4992286;28;20210;-77
2023/04/08 08:03:14;;;;;;;26.93;16.73;;;;;;;;;;4988253;28;20200;-77
2023/04/08 08:05:40;;;;;;;26.67;15.67;;;;;;;;;;4992367;28;20538;-76
2023/04/08 08:08:06;;;;;;;23.67;16.30;;;;;;;;;;4992293;28;20171;-76
2023/04/08 08:10:31;;;;;;;28.83;17.63;;;;;;;;;;4994527;28;20653;-76
2023/04/08 08:12:56;;;;;;;26.43;16.97;;;;;;;;;;4992338;28;20190;-76
2023/04/08 08:15:22;;;;;;;24.70;15.70;;;;;;;;;;5011907;28;20175;-77
2023/04/08 08:17:47;;;;;;;25.70;16.17;;;;;;;;;;5009716;28;20600;-77
2023/04/08 08:20:12;;;;;;;23.17;15.87;;;;;;;;;;4995580;28;20175;-77
2023/04/08 08:22:38;;;;;;;24.80;16.00;;;;;;;;;;4982726;28;20191;-77
2023/04/08 08:25:04;;;;;;;25.83;15.93;;;;;;;;;;4988748;28;20303;-77
2023/04/08 08:27:29;;;;;;;25.33;16.73;;;;;;;;;;4989834;28;20623;-77
2023/04/08 08:29:55;;;;;;;25.73;16.33;;;;;;;;;;4987011;28;20180;-77
2023/04/08 08:32:21;;;;;;;25.00;16.33;;;;;;;;;;4991067;28;20203;-77
2023/04/08 08:34:46;;;;;;;22.53;14.40;;;;;;;;;;4990244;28;20654;-77
2023/04/08 08:37:11;;;;;;;23.37;15.53;;;;;;;;;;4991773;28;20557;-76
2023/04/08 08:39:36;;;;;;;23.55;16.23;;;;;;;;;;4989813;28;20175;-77
2023/04/08 08:42:02;;;;;;;22.35;14.15;;;;;;;;;;4987315;28;20743;-77
2023/04/08 08:44:29;;;;;;;22.30;15.05;;;;;;;;;;4989263;28;20211;-77
2023/04/08 08:46:54;;;;;;;22.75;15.60;;;;;;;;;;4992571;28;20621;-77
2023/04/08 08:49:19;;;;;;;20.25;13.25;;;;;;;;;;4988671;28;20191;-77
2023/04/08 08:51:46;;;;;;;20.95;14.57;;;;;;;;;;4984344;28;20195;-77
2023/04/08 08:54:11;;;;;;;22.98;15.00;;;;;;;;;;4991372;28;20678;-77
2023/04/08 08:56:36;;;;;;;21.52;14.73;;;;;;;;;;4984276;28;20187;-77
2023/04/08 08:59:02;;;;;;;19.23;13.82;;;;;;;;;;4989818;28;20175;-76
2023/04/08 09:01:45;;;;;;;19.38;13.80;;;;;;;;;;5003945;23;20235;-67
2023/04/08 09:04:10;;;;;;;17.63;13.63;;;;;;;;;;4990712;28;20202;-66
2023/04/08 09:06:36;;;;;;;20.05;14.45;;;;;;;;;;4991151;28;20175;-67
2023/04/08 09:09:04;;;;;;;18.95;13.07;;;;;;;;;;4991319;28;20183;-66
2023/04/08 09:11:30;;;;;;;19.35;14.63;;;;;;;;;;4990780;28;20466;-66
2023/04/08 09:13:55;;;;;;;15.68;12.13;;;;;;;;;;4990754;28;20627;-66
2023/04/08 09:16:22;;;;;;;13.75;11.63;;;;;;;;;;4985345;28;20221;-66
2023/04/08 09:18:48;;;;;;;16.27;12.02;;;;;;;;;;4990666;28;20182;-66
2023/04/08 09:21:15;;;;;;;14.45;11.05;;;;;;;;;;4989790;28;20261;-66
2023/04/08 09:23:40;;;;;;;16.92;11.40;;;;;;;;;;4990682;28;20553;-67
2023/04/08 09:26:10;;;;;;;14.87;12.10;;;;;;;;;;4990795;28;20187;-66
2023/04/08 09:28:36;;;;;;;14.75;11.77;;;;;;;;;;4990622;28;20404;-66
2023/04/08 09:31:16;;;;;;;16.20;12.32;;;;;;;;;;4991116;28;20195;-66
2023/04/08 09:33:41;;;;;;;14.07;11.20;;;;;;;;;;4991277;28;20183;-67
2023/04/08 09:36:06;;;;;;;13.97;11.57;;;;;;;;;;4990901;28;20222;-67
2023/04/08 09:38:32;;;;;;;18.13;11.88;;;;;;;;;;4988734;28;20961;-67
2023/04/08 09:40:58;;;;;;;15.30;12.15;;;;;;;;;;4994276;28;20699;-66
2023/04/08 09:43:23;;;;;;;14.60;11.35;;;;;;;;;;4994293;28;20176;-67
2023/04/08 09:45:49;;;;;;;13.82;10.80;;;;;;;;;;4994226;28;20175;-67
2023/04/08 09:48:23;;;;;;;15.52;10.48;;;;;;;;;;4990140;28;20723;-67
2023/04/08 09:50:48;;;;;;;13.43;10.13;;;;;;;;;;4992808;28;20223;-68
2023/04/08 09:53:31;;;;;;;13.75;11.27;;;;;;;;;;4989678;28;20673;-67
2023/04/08 09:55:57;;;;;;;13.40;10.77;;;;;;;;;;4992705;28;20191;-67
2023/04/08 09:58:28;;;;;;;13.32;10.02;;;;;;;;;;4991499;28;20176;-67
2023/04/08 10:00:53;;;;;;;11.82;9.60;;;;;;;;;;4993017;28;20622;-67
2023/04/08 10:03:37;;;;;;;12.45;10.10;;;;;;;;;;4991934;28;20448;-67
2023/04/08 10:06:02;;;;;;;13.38;9.80;;;;;;;;;;4991400;28;20176;-67
2023/04/08 10:08:29;;;;;;;11.20;8.93;;;;;;;;;;4990978;28;20226;-67
2023/04/08 10:10:55;;;;;;;11.02;8.95;;;;;;;;;;5004307;28;20192;-67
2023/04/08 10:13:20;;;;;;;10.98;9.10;;;;;;;;;;4992630;28;20263;-67
2023/04/08 10:15:47;;;;;;;10.27;8.13;;;;;;;;;;4991564;28;20184;-67
2023/04/08 10:18:13;;;;;;;10.85;8.75;;;;;;;;;;5001240;28;20180;-67
2023/04/08 10:20:38;;;;;;;9.57;8.15;;;;;;;;;;4992937;28;20270;-67
2023/04/08 10:23:06;;;;;;;12.27;8.60;;;;;;;;;;4993679;28;20172;-67
2023/04/08 10:25:33;;;;;;;11.48;8.45;;;;;;;;;;4987150;28;20465;-67
2023/04/08 10:28:00;;;;;;;10.15;7.80;;;;;;;;;;4992142;28;20232;-67
2023/04/08 10:30:25;;;;;;;9.05;7.38;;;;;;;;;;4991045;28;20250;-67
2023/04/08 10:32:50;;;;;;;9.85;7.88;;;;;;;;;;4992249;28;20649;-67
2023/04/08 10:35:16;;;;;;;9.18;7.82;;;;;;;;;;4993561;28;20211;-67
2023/04/08 10:37:42;;;;;;;9.70;8.50;;;;;;;;;;4992752;28;20270;-67
2023/04/08 10:40:17;;;;;;;9.65;7.53;;;;;;;;;;4992383;28;20230;-67
2023/04/08 10:42:42;;;;;;;10.98;8.38;;;;;;;;;;4991865;28;20198;-67
2023/04/08 10:45:08;;;;;;;10.10;7.88;;;;;;;;;;4993325;28;20728;-67
2023/04/08 10:47:33;;;;;;;11.50;8.05;;;;;;;;;;4992185;28;20175;-67
2023/04/08 10:49:58;;;;;;;9.30;6.45;;;;;;;;;;4990404;28;20606;-67
2023/04/08 10:52:26;;;;;;;10.38;7.70;;;;;;;;;;4993010;28;20200;-67
2023/04/08 10:54:52;;;;;;;10.88;7.30;;;;;;;;;;4993155;28;21083;-67
2023/04/08 10:57:23;;;;;;;8.52;7.60;;;;;;;;;;4993568;28;20225;-67
2023/04/08 10:59:48;;;;;;;9.38;6.75;;;;;;;;;;4993433;28;20681;-67
2023/04/08 11:02:14;;;;;;;8.30;7.10;;;;;;;;;;4993083;28;20310;-67
2023/04/08 11:04:43;;;;;;;10.77;7.28;;;;;;;;;;4992831;28;20662;-67
2023/04/08 11:07:08;;;;;;;8.48;6.75;;;;;;;;;;4993204;28;20183;-67
2023/04/08 11:09:34;;;;;;;8.90;6.53;;;;;;;;;;5000757;28;20171;-67
2023/04/08 11:12:00;;;;;;;8.63;6.55;;;;;;;;;;4988753;28;20445;-67
2023/04/08 11:14:26;;;;;;;9.25;6.30;;;;;;;;;;4987112;28;20179;-67
2023/04/08 11:16:51;;;;;;;10.70;7.15;;;;;;;;;;4990446;28;20192;-67
2023/04/08 11:19:17;;;;;;;9.02;7.18;;;;;;;;;;4991311;28;20183;-67
2023/04/08 11:21:42;;;;;;;10.82;6.20;;;;;;;;;;4996638;28;20223;-67
2023/04/08 11:24:11;;;;;;;9.13;6.65;;;;;;;;;;4992552;28;20279;-67
2023/04/08 11:26:36;;;;;;;7.10;6.13;;;;;;;;;;4988905;28;20223;-67
2023/04/08 11:29:02;;;;;;;7.68;6.10;;;;;;;;;;4992496;28;20594;-67
2023/04/08 11:31:28;;;;;;;9.02;6.40;;;;;;;;;;4992325;28;20610;-67
2023/04/08 11:33:55;;;;;;;10.50;6.97;;;;;;;;;;4988717;28;21470;-67
2023/04/08 11:36:20;;;;;;;10.30;6.10;;;;;;;;;;4990195;28;20188;-67
2023/04/08 11:38:46;;;;;;;9.27;6.47;;;;;;;;;;4990401;28;20241;-67
2023/04/08 11:41:12;;;;;;;9.55;6.55;;;;;;;;;;4992420;28;20612;-67
2023/04/08 11:43:38;;;;;;;8.85;6.85;;;;;;;;;;4991647;28;20172;-67
2023/04/08 11:46:10;;;;;;;8.15;6.82;;;;;;;;;;4993224;28;20266;-67
2023/04/08 11:48:37;;;;;;;7.57;5.88;;;;;;;;;;4985700;28;20722;-66
2023/04/08 11:51:03;;;;;;;9.15;6.18;;;;;;;;;;4978646;28;20218;-67
2023/04/08 11:53:28;;;;;;;7.70;6.40;;;;;;;;;;4989027;28;20175;-67
2023/04/08 11:55:54;;;;;;;9.95;6.32;;;;;;;;;;4988149;28;20254;-67
2023/04/08 11:58:20;;;;;;;10.05;7.57;;;;;;;;;;4992811;28;20282;-67
2023/04/08 12:00:45;;;;;;;8.38;6.30;;;;;;;;;;4989894;28;20716;-67
2023/04/08 12:03:12;;;;;;;16.08;6.82;;;;;;;;;;4992031;28;20658;-67
2023/04/08 12:05:37;;;;;;;9.60;7.00;;;;;;;;;;4990351;28;20176;-67
2023/04/08 12:08:03;;;;;;;7.75;5.72;;;;;;;;;;4989393;28;20194;-67
2023/04/08 12:10:28;;;;;;;9.18;5.90;;;;;;;;;;4990019;28;20648;-67
2023/04/08 12:12:53;;;;;;;9.53;5.80;;;;;;;;;;4988532;28;20187;-67
2023/04/08 12:15:18;;;;;;;8.43;5.85;;;;;;;;;;4987813;28;20906;-67
2023/04/08 12:17:44;;;;;;;7.82;5.85;;;;;;;;;;4990237;28;20186;-67
2023/04/08 12:20:09;;;;;;;9.55;6.05;;;;;;;;;;4991247;28;20176;-67
2023/04/08 12:22:35;;;;;;;8.77;6.28;;;;;;;;;;4986380;28;20210;-67
2023/04/08 12:25:02;;;;;;;8.93;6.32;;;;;;;;;;4989267;28;20179;-67
2023/04/08 12:27:27;;;;;;;8.48;5.60;;;;;;;;;;4986845;28;20176;-68
2023/04/08 12:29:53;;;;;;;8.25;6.13;;;;;;;;;;4991278;28;20207;-67
2023/04/08 12:32:18;;;;;;;7.65;6.28;;;;;;;;;;4985410;28;20250;-67
2023/04/08 12:34:43;;;;;;;9.53;6.93;;;;;;;;;;4989062;28;20226;-67
2023/04/08 12:37:09;;;;;;;7.85;6.05;;;;;;;;;;4989583;28;20452;-67
2023/04/08 12:39:34;;;;;;;8.88;6.22;;;;;;;;;;4988595;28;20175;-66
2023/04/08 12:41:59;;;;;;;8.63;6.20;;;;;;;;;;4994527;28;20568;-66
2023/04/08 12:44:25;;;;;;;7.83;5.73;;;;;;;;;;4993826;28;20660;-66
2023/04/08 12:46:50;;;;;;;7.03;6.13;;;;;;;;;;4994109;28;20424;-66
2023/04/08 12:49:15;;;;;;;7.55;5.90;;;;;;;;;;4989422;28;20246;-67
2023/04/08 12:51:40;;;;;;;9.63;6.47;;;;;;;;;;4990470;28;20317;-67
2023/04/08 12:54:06;;;;;;;9.18;6.22;;;;;;;;;;4989465;28;20290;-67
2023/04/08 12:56:31;;;;;;;9.17;6.10;;;;;;;;;;4991833;28;20204;-67
2023/04/08 12:58:57;;;;;;;7.55;5.50;;;;;;;;;;4990401;28;20496;-67
2023/04/08 13:01:22;;;;;;;9.43;6.40;;;;;;;;;;4990994;28;20207;-67
2023/04/08 13:03:47;;;;;;;8.05;5.53;;;;;;;;;;4990977;28;20222;-67
2023/04/08 13:06:12;;;;;;;10.88;6.40;;;;;;;;;;4991019;28;20637;-67
2023/04/08 13:08:37;;;;;;;8.95;6.55;;;;;;;;;;4989294;28;20184;-67
2023/04/08 13:11:03;;;;;;;9.43;6.20;;;;;;;;;;4990381;28;20203;-67
2023/04/08 13:13:29;;;;;;;8.02;5.68;;;;;;;;;;4988934;28;20455;-68
2023/04/08 13:15:55;;;;;;;10.43;6.88;;;;;;;;;;4993645;28;20184;-67
2023/04/08 13:18:20;;;;;;;7.32;5.72;;;;;;;;;;4993577;28;20196;-67
2023/04/08 13:20:46;;;;;;;10.43;6.40;;;;;;;;;;4990015;28;20291;-67
2023/04/08 13:23:11;;;;;;;9.23;6.30;;;;;;;;;;4993544;28;20228;-66
2023/04/08 13:25:36;;;;;;;7.10;5.80;;;;;;;;;;4994602;28;20171;-67
2023/04/08 13:28:02;;;;;;;9.20;6.57;;;;;;;;;;4992191;28;20237;-67
2023/04/08 13:30:27;;;;;;;7.10;6.15;;;;;;;;;;4994494;28;20968;-67
2023/04/08 13:32:52;;;;;;;13.05;7.10;;;;;;;;;;4993175;28;20187;-68
2023/04/08 13:35:17;;;;;;;11.20;7.30;;;;;;;;;;4993103;28;20766;-67
2023/04/08 13:37:43;;;;;;;7.60;6.80;;;;;;;;;;4988441;28;20428;-67
2023/04/08 13:40:08;;;;;;;9.70;6.63;;;;;;;;;;4985675;28;20267;-67
2023/04/08 13:42:33;;;;;;;10.38;7.50;;;;;;;;;;4981877;28;20199;-67
2023/04/08 13:44:59;;;;;;;9.52;7.18;;;;;;;;;;5001756;28;20188;-66
2023/04/08 13:47:25;;;;;;;8.10;6.15;;;;;;;;;;4993292;28;20203;-66
2023/04/08 13:49:51;;;;;;;9.40;7.30;;;;;;;;;;4990120;28;20199;-66
2023/04/08 13:52:16;;;;;;;10.67;7.93;;;;;;;;;;4992652;28;20199;-66
2023/04/08 13:54:41;;;;;;;10.25;7.68;;;;;;;;;;4993907;28;20911;-66
2023/04/08 13:57:06;;;;;;;10.23;7.43;;;;;;;;;;4993912;28;20540;-68
2023/04/08 13:59:32;;;;;;;8.57;6.95;;;;;;;;;;4991964;28;20413;-66
2023/04/08 14:01:57;;;;;;;10.25;7.50;;;;;;;;;;4993883;28;20684;-66
2023/04/08 14:04:22;;;;;;;8.80;7.13;;;;;;;;;;4994376;28;20176;-67
2023/04/08 14:06:49;;;;;;;9.38;7.18;;;;;;;;;;4993739;28;20849;-66
2023/04/08 14:09:15;;;;;;;8.85;6.95;;;;;;;;;;4993893;28;20202;-66
2023/04/08 14:11:40;;;;;;;11.65;8.02;;;;;;;;;;4992727;28;20195;-67
2023/04/08 14:14:05;;;;;;;11.25;7.55;;;;;;;;;;4993602;28;20249;-66
2023/04/08 14:16:31;;;;;;;11.00;7.20;;;;;;;;;;4992355;28;20176;-67